Boizenburg, Germany

9:33 PM CEST on September 19, 2014 (GMT +0200)
Familie Kruse | Change Station
CLOSE
Current Station
Personal Weather Station
Location: Schwarzenbek, SCHLESWIG-HOLSTEIN
Elevation: 151 ft
Nearby Weather Stations

Elev 151 ft 53.52 °N, 10.48 °E | Updated 3 minutes ago

Partly Cloudy
Partly Cloudy
62.4 °F
Feels Like 62.4 °F
N
0.0
Wind Variable Wind from North
Gusts 0.0 mph

Today
High -- | Low -- °F
--% Chance of Precip.
Yesterday
High -- | Low -- °F
Precip. -- in
6:57 AM 7:23 PM
Waning Crescent, 17% visible
Pressure 29.95 in
Visibility 6.2 miles
Clouds Few 4500 ft
Dew Point 59 °F
Humidity 88%
Rainfall 0.00 in
Snow Depth Not available.
UV 0 out of 12
Pollen Not available.
Air Quality Not available.
Flu Activity Not available.
METAR EDHL 191920Z 11002KT 9999 FEW045 17/14 Q1014 RMK ATIS FOX

More Conditions Fewer Conditions

Pressure 29.95 in
Visibility 6.2 miles
Clouds Few 4500 ft
Dew Point 59 °F
Humidity 88%
Rainfall 0.00 in
Snow Depth Not available.
UV 0 out of 12
Pollen Not available.
Air Quality Not available.
Flu Activity Not available.
METAR EDHL 191920Z 11002KT 9999 FEW045 17/14 Q1014 RMK ATIS FOX

More Conditions Fewer Conditions

10-Day Weather Forecast

Almanac

Astronomy

Sep. 19, 2014 Rise Set
Actual Time 6:57 AM CEST 7:23 PM CEST
Civil Twilight 6:22 AM CEST 7:58 PM CEST
Nautical Twilight 5:40 AM CEST 8:40 PM CEST
Astronomical Twilight 4:56 AM CEST 9:24 PM CEST
Moon 1:57 AM CEST 5:08 PM CEST
Length of Visible Light 13h 36m
Length of Day
12h 26m
Tomorrow will be 4m 10s shorter.
Waning Crescent, 17% of the Moon is Illuminated
Today
Waning Crescent
Sep 24
New
Oct 1
First Quarter
Oct 8
Full
Oct 15
Last Quarter

Today's Extremes

Country Highs Country Lows

Community

WunderPhotos

Upload Photos

1,754,687 photos uploaded!

WunderBlogs® & News

Nearby

Snow Depth

Not available.

Earthquake Activity

City Distance Mag. Time & Date
No recent earthquake activity has been reported nearby.
Minimum magnitude displayed is 2.5.

Coastal Water Temperatures

Place Temperature
No Stations Reporting

Nearby Weather Stations